sensor_id;sensor_type;location;lat;lon;timestamp;temperature;humidity
75865;HTU21D;64510;46.704;38.274;2023-02-15T00:01:21;0.75;101.22
75865;HTU21D;64510;46.704;38.274;2023-02-15T00:03:50;0.73;101.28
75865;HTU21D;64510;46.704;38.274;2023-02-15T00:06:16;0.76;101.37
75865;HTU21D;64510;46.704;38.274;2023-02-15T00:08:42;0.80;101.36
75865;HTU21D;64510;46.704;38.274;2023-02-15T00:11:11;0.82;101.32
75865;HTU21D;64510;46.704;38.274;2023-02-15T00:13:37;0.82;101.30
75865;HTU21D;64510;46.704;38.274;2023-02-15T00:16:11;0.81;101.30
75865;HTU21D;64510;46.704;38.274;2023-02-15T00:18:38;0.79;101.26
75865;HTU21D;64510;46.704;38.274;2023-02-15T00:21:06;0.79;101.19
75865;HTU21D;64510;46.704;38.274;2023-02-15T00:23:32;0.80;101.22
75865;HTU21D;64510;46.704;38.274;2023-02-15T00:26:11;0.80;101.10
75865;HTU21D;64510;46.704;38.274;2023-02-15T00:28:39;0.77;101.11
75865;HTU21D;64510;46.704;38.274;2023-02-15T00:31:07;0.77;101.12
75865;HTU21D;64510;46.704;38.274;2023-02-15T00:33:35;0.77;101.12
75865;HTU21D;64510;46.704;38.274;2023-02-15T00:36:02;0.77;101.15
75865;HTU21D;64510;46.704;38.274;2023-02-15T00:38:29;0.79;101.15
75865;HTU21D;64510;46.704;38.274;2023-02-15T00:40:56;0.79;101.12
75865;HTU21D;64510;46.704;38.274;2023-02-15T00:43:23;0.81;101.09
75865;HTU21D;64510;46.704;38.274;2023-02-15T00:45:49;0.79;101.12
75865;HTU21D;64510;46.704;38.274;2023-02-15T00:48:15;0.81;101.19
75865;HTU21D;64510;46.704;38.274;2023-02-15T00:50:53;0.86;101.20
75865;HTU21D;64510;46.704;38.274;2023-02-15T00:53:19;0.86;101.19
75865;HTU21D;64510;46.704;38.274;2023-02-15T00:55:45;0.86;101.24
75865;HTU21D;64510;46.704;38.274;2023-02-15T00:58:12;0.88;101.24
75865;HTU21D;64510;46.704;38.274;2023-02-15T01:00:39;0.89;101.22
75865;HTU21D;64510;46.704;38.274;2023-02-15T01:03:06;0.87;101.19
75865;HTU21D;64510;46.704;38.274;2023-02-15T01:05:32;0.88;101.19
75865;HTU21D;64510;46.704;38.274;2023-02-15T01:07:58;0.88;101.16
75865;HTU21D;64510;46.704;38.274;2023-02-15T01:10:25;0.89;101.19
75865;HTU21D;64510;46.704;38.274;2023-02-15T01:12:52;0.87;101.21
75865;HTU21D;64510;46.704;38.274;2023-02-15T01:15:18;0.87;101.14
75865;HTU21D;64510;46.704;38.274;2023-02-15T01:17:44;0.88;101.19
75865;HTU21D;64510;46.704;38.274;2023-02-15T01:20:15;0.88;101.12
75865;HTU21D;64510;46.704;38.274;2023-02-15T01:22:40;0.88;101.09
75865;HTU21D;64510;46.704;38.274;2023-02-15T01:25:06;0.88;101.07
75865;HTU21D;64510;46.704;38.274;2023-02-15T01:27:32;0.84;100.99
75865;HTU21D;64510;46.704;38.274;2023-02-15T01:29:58;0.81;101.03
75865;HTU21D;64510;46.704;38.274;2023-02-15T01:32:24;0.79;101.06
75865;HTU21D;64510;46.704;38.274;2023-02-15T01:34:50;0.77;101.11
75865;HTU21D;64510;46.704;38.274;2023-02-15T01:37:16;0.77;101.12
75865;HTU21D;64510;46.704;38.274;2023-02-15T01:39:42;0.77;101.13
75865;HTU21D;64510;46.704;38.274;2023-02-15T01:42:10;0.78;101.13
75865;HTU21D;64510;46.704;38.274;2023-02-15T01:47:41;0.77;101.09
75865;HTU21D;64510;46.704;38.274;2023-02-15T01:50:15;0.75;101.08
75865;HTU21D;64510;46.704;38.274;2023-02-15T01:52:53;0.71;101.03
75865;HTU21D;64510;46.704;38.274;2023-02-15T01:55:23;0.65;101.09
75865;HTU21D;64510;46.704;38.274;2023-02-15T01:57:51;0.63;101.11
75865;HTU21D;64510;46.704;38.274;2023-02-15T02:00:17;0.62;101.14
75865;HTU21D;64510;46.704;38.274;2023-02-15T02:02:49;0.62;101.16
75865;HTU21D;64510;46.704;38.274;2023-02-15T02:05:16;0.62;101.18
75865;HTU21D;64510;46.704;38.274;2023-02-15T02:07:45;0.61;101.16
75865;HTU21D;64510;46.704;38.274;2023-02-15T02:10:15;0.59;101.14
75865;HTU21D;64510;46.704;38.274;2023-02-15T02:12:44;0.59;101.14
75865;HTU21D;64510;46.704;38.274;2023-02-15T02:15:11;0.60;101.14
75865;HTU21D;64510;46.704;38.274;2023-02-15T02:23:29;0.57;101.17
75865;HTU21D;64510;46.704;38.274;2023-02-15T02:40:01;0.55;101.09
75865;HTU21D;64510;46.704;38.274;2023-02-15T02:42:41;0.55;101.11
75865;HTU21D;64510;46.704;38.274;2023-02-15T02:45:26;0.57;101.11
75865;HTU21D;64510;46.704;38.274;2023-02-15T02:47:58;0.58;101.07
75865;HTU21D;64510;46.704;38.274;2023-02-15T02:50:28;0.58;101.07
75865;HTU21D;64510;46.704;38.274;2023-02-15T02:52:56;0.58;101.03
75865;HTU21D;64510;46.704;38.274;2023-02-15T02:58:20;0.59;101.00
75865;HTU21D;64510;46.704;38.274;2023-02-15T03:00:59;0.58;100.99
75865;HTU21D;64510;46.704;38.274;2023-02-15T03:03:41;0.54;100.98
75865;HTU21D;64510;46.704;38.274;2023-02-15T03:06:50;0.57;101.00
75865;HTU21D;64510;46.704;38.274;2023-02-15T03:09:25;0.55;100.99
75865;HTU21D;64510;46.704;38.274;2023-02-15T03:12:01;0.55;100.95
75865;HTU21D;64510;46.704;38.274;2023-02-15T03:14:33;0.55;100.95
75865;HTU21D;64510;46.704;38.274;2023-02-15T03:17:00;0.53;100.94
75865;HTU21D;64510;46.704;38.274;2023-02-15T03:19:35;0.55;100.94
75865;HTU21D;64510;46.704;38.274;2023-02-15T03:22:05;0.55;100.93
75865;HTU21D;64510;46.704;38.274;2023-02-15T03:24:47;0.58;100.95
75865;HTU21D;64510;46.704;38.274;2023-02-15T03:27:22;0.54;100.94
75865;HTU21D;64510;46.704;38.274;2023-02-15T03:29:52;0.57;100.91
75865;HTU21D;64510;46.704;38.274;2023-02-15T03:32:19;0.54;100.89
75865;HTU21D;64510;46.704;38.274;2023-02-15T03:34:45;0.55;100.93
75865;HTU21D;64510;46.704;38.274;2023-02-15T03:45:48;0.47;100.93
75865;HTU21D;64510;46.704;38.274;2023-02-15T03:48:25;0.46;100.96
75865;HTU21D;64510;46.704;38.274;2023-02-15T03:50:57;0.46;100.93
75865;HTU21D;64510;46.704;38.274;2023-02-15T03:53:43;0.45;100.98
75865;HTU21D;64510;46.704;38.274;2023-02-15T03:56:11;0.45;101.03
75865;HTU21D;64510;46.704;38.274;2023-02-15T03:58:37;0.45;100.98
75865;HTU21D;64510;46.704;38.274;2023-02-15T04:01:39;0.45;101.05
75865;HTU21D;64510;46.704;38.274;2023-02-15T04:06:56;0.42;101.07
75865;HTU21D;64510;46.704;38.274;2023-02-15T04:09:21;0.39;101.12
75865;HTU21D;64510;46.704;38.274;2023-02-15T04:12:06;0.38;101.15
75865;HTU21D;64510;46.704;38.274;2023-02-15T04:14:32;0.37;101.19
75865;HTU21D;64510;46.704;38.274;2023-02-15T04:17:16;0.36;101.14
75865;HTU21D;64510;46.704;38.274;2023-02-15T04:19:42;0.33;101.10
75865;HTU21D;64510;46.704;38.274;2023-02-15T04:22:26;0.30;101.10
75865;HTU21D;64510;46.704;38.274;2023-02-15T04:25:11;0.25;101.06
75865;HTU21D;64510;46.704;38.274;2023-02-15T04:27:45;0.21;101.05
75865;HTU21D;64510;46.704;38.274;2023-02-15T04:30:12;0.16;100.99
75865;HTU21D;64510;46.704;38.274;2023-02-15T04:32:39;0.09;100.99
75865;HTU21D;64510;46.704;38.274;2023-02-15T04:35:05;0.06;101.00
75865;HTU21D;64510;46.704;38.274;2023-02-15T04:37:33;0.03;100.94
75865;HTU21D;64510;46.704;38.274;2023-02-15T04:39:59;-0.01;100.96
75865;HTU21D;64510;46.704;38.274;2023-02-15T04:42:25;-0.03;100.95
75865;HTU21D;64510;46.704;38.274;2023-02-15T04:44:52;-0.06;100.97
75865;HTU21D;64510;46.704;38.274;2023-02-15T04:47:18;-0.05;101.00
75865;HTU21D;64510;46.704;38.274;2023-02-15T04:49:45;0.01;101.07
75865;HTU21D;64510;46.704;38.274;2023-02-15T04:52:11;0.02;100.99
75865;HTU21D;64510;46.704;38.274;2023-02-15T04:54:37;-0.01;100.92
75865;HTU21D;64510;46.704;38.274;2023-02-15T04:57:04;-0.05;100.91
75865;HTU21D;64510;46.704;38.274;2023-02-15T04:59:30;-0.07;100.90
75865;HTU21D;64510;46.704;38.274;2023-02-15T05:01:56;-0.09;100.90
75865;HTU21D;64510;46.704;38.274;2023-02-15T05:04:21;-0.08;100.91
75865;HTU21D;64510;46.704;38.274;2023-02-15T05:06:47;0.05;101.09
75865;HTU21D;64510;46.704;38.274;2023-02-15T05:09:13;0.17;101.22
75865;HTU21D;64510;46.704;38.274;2023-02-15T05:11:39;0.27;101.33
75865;HTU21D;64510;46.704;38.274;2023-02-15T05:14:05;0.42;101.42
75865;HTU21D;64510;46.704;38.274;2023-02-15T05:16:40;0.60;101.49
75865;HTU21D;64510;46.704;38.274;2023-02-15T05:19:06;0.75;101.48
75865;HTU21D;64510;46.704;38.274;2023-02-15T05:21:33;0.86;101.43
75865;HTU21D;64510;46.704;38.274;2023-02-15T05:23:58;1.02;101.75
75865;HTU21D;64510;46.704;38.274;2023-02-15T05:26:25;1.20;102.03
75865;HTU21D;64510;46.704;38.274;2023-02-15T05:29:09;1.33;102.03
75865;HTU21D;64510;46.704;38.274;2023-02-15T05:31:36;1.37;102.12
75865;HTU21D;64510;46.704;38.274;2023-02-15T05:34:02;1.31;101.78
75865;HTU21D;64510;46.704;38.274;2023-02-15T05:36:28;1.14;101.71
75865;HTU21D;64510;46.704;38.274;2023-02-15T05:38:54;1.08;101.73
75865;HTU21D;64510;46.704;38.274;2023-02-15T05:41:20;1.14;101.71
75865;HTU21D;64510;46.704;38.274;2023-02-15T05:43:46;1.11;101.48
75865;HTU21D;64510;46.704;38.274;2023-02-15T05:46:13;1.13;101.35
75865;HTU21D;64510;46.704;38.274;2023-02-15T05:48:39;1.08;101.06
75865;HTU21D;64510;46.704;38.274;2023-02-15T05:51:10;1.14;100.96
75865;HTU21D;64510;46.704;38.274;2023-02-15T05:53:41;1.22;100.85
75865;HTU21D;64510;46.704;38.274;2023-02-15T05:56:09;1.37;100.75
75865;HTU21D;64510;46.704;38.274;2023-02-15T05:58:37;1.56;100.70
75865;HTU21D;64510;46.704;38.274;2023-02-15T06:01:11;1.82;100.58
75865;HTU21D;64510;46.704;38.274;2023-02-15T06:03:38;1.82;99.96
75865;HTU21D;64510;46.704;38.274;2023-02-15T06:06:04;1.65;99.33
75865;HTU21D;64510;46.704;38.274;2023-02-15T06:08:31;1.57;98.99
75865;HTU21D;64510;46.704;38.274;2023-02-15T06:10:57;1.43;98.41
75865;HTU21D;64510;46.704;38.274;2023-02-15T06:13:23;1.40;98.37
75865;HTU21D;64510;46.704;38.274;2023-02-15T06:15:48;1.33;97.86
75865;HTU21D;64510;46.704;38.274;2023-02-15T06:18:14;1.27;97.49
75865;HTU21D;64510;46.704;38.274;2023-02-15T06:20:40;1.21;97.20
75865;HTU21D;64510;46.704;38.274;2023-02-15T06:23:06;1.19;96.95
75865;HTU21D;64510;46.704;38.274;2023-02-15T06:25:32;1.24;96.91
75865;HTU21D;64510;46.704;38.274;2023-02-15T06:27:58;1.22;96.73
75865;HTU21D;64510;46.704;38.274;2023-02-15T06:30:26;1.17;96.42
75865;HTU21D;64510;46.704;38.274;2023-02-15T06:32:52;1.18;96.39
75865;HTU21D;64510;46.704;38.274;2023-02-15T06:35:18;1.07;96.04
75865;HTU21D;64510;46.704;38.274;2023-02-15T06:37:45;1.03;96.08
75865;HTU21D;64510;46.704;38.274;2023-02-15T06:40:12;1.06;96.15
75865;HTU21D;64510;46.704;38.274;2023-02-15T06:42:38;1.14;96.22
75865;HTU21D;64510;46.704;38.274;2023-02-15T06:45:05;1.20;95.97
75865;HTU21D;64510;46.704;38.274;2023-02-15T06:47:31;1.23;96.03
75865;HTU21D;64510;46.704;38.274;2023-02-15T06:49:57;1.27;96.00
75865;HTU21D;64510;46.704;38.274;2023-02-15T06:52:23;1.28;95.95
75865;HTU21D;64510;46.704;38.274;2023-02-15T06:54:49;1.23;95.82
75865;HTU21D;64510;46.704;38.274;2023-02-15T06:57:15;1.18;95.81
75865;HTU21D;64510;46.704;38.274;2023-02-15T06:59:41;1.20;95.88
75865;HTU21D;64510;46.704;38.274;2023-02-15T07:02:09;1.25;95.91
75865;HTU21D;64510;46.704;38.274;2023-02-15T07:04:35;1.28;95.91
75865;HTU21D;64510;46.704;38.274;2023-02-15T07:07:00;1.26;95.61
75865;HTU21D;64510;46.704;38.274;2023-02-15T07:09:26;1.23;95.52
75865;HTU21D;64510;46.704;38.274;2023-02-15T07:11:52;1.20;95.58
75865;HTU21D;64510;46.704;38.274;2023-02-15T07:14:36;1.25;95.73
75865;HTU21D;64510;46.704;38.274;2023-02-15T07:17:02;1.28;95.58
75865;HTU21D;64510;46.704;38.274;2023-02-15T07:19:28;1.29;95.60
75865;HTU21D;64510;46.704;38.274;2023-02-15T07:21:54;1.26;95.57
75865;HTU21D;64510;46.704;38.274;2023-02-15T07:24:20;1.26;95.57
75865;HTU21D;64510;46.704;38.274;2023-02-15T07:26:46;1.29;95.64
75865;HTU21D;64510;46.704;38.274;2023-02-15T07:29:14;1.31;95.54
75865;HTU21D;64510;46.704;38.274;2023-02-15T07:31:43;1.38;95.68
75865;HTU21D;64510;46.704;38.274;2023-02-15T07:34:11;1.39;95.52
75865;HTU21D;64510;46.704;38.274;2023-02-15T07:36:37;1.31;95.26
75865;HTU21D;64510;46.704;38.274;2023-02-15T07:39:05;1.27;95.40
75865;HTU21D;64510;46.704;38.274;2023-02-15T07:41:31;1.38;95.62
75865;HTU21D;64510;46.704;38.274;2023-02-15T07:43:57;1.42;95.23
75865;HTU21D;64510;46.704;38.274;2023-02-15T07:46:32;1.42;95.37
75865;HTU21D;64510;46.704;38.274;2023-02-15T07:48:58;1.43;95.26
75865;HTU21D;64510;46.704;38.274;2023-02-15T07:51:24;1.41;95.23
75865;HTU21D;64510;46.704;38.274;2023-02-15T07:53:50;1.41;95.30
75865;HTU21D;64510;46.704;38.274;2023-02-15T07:56:17;1.37;95.24
75865;HTU21D;64510;46.704;38.274;2023-02-15T07:58:43;1.35;95.49
75865;HTU21D;64510;46.704;38.274;2023-02-15T08:01:31;1.40;95.51
75865;HTU21D;64510;46.704;38.274;2023-02-15T08:03:57;1.46;95.43
75865;HTU21D;64510;46.704;38.274;2023-02-15T08:06:25;1.56;95.37
75865;HTU21D;64510;46.704;38.274;2023-02-15T08:08:51;1.60;95.21
75865;HTU21D;64510;46.704;38.274;2023-02-15T08:11:23;1.62;95.02
75865;HTU21D;64510;46.704;38.274;2023-02-15T08:14:02;1.61;95.17
75865;HTU21D;64510;46.704;38.274;2023-02-15T08:16:35;1.67;95.14
75865;HTU21D;64510;46.704;38.274;2023-02-15T08:21:31;1.87;95.09
75865;HTU21D;64510;46.704;38.274;2023-02-15T08:23:58;1.88;94.92
75865;HTU21D;64510;46.704;38.274;2023-02-15T08:26:24;1.85;94.75
75865;HTU21D;64510;46.704;38.274;2023-02-15T08:28:53;1.90;95.08
75865;HTU21D;64510;46.704;38.274;2023-02-15T08:31:20;1.94;94.99
75865;HTU21D;64510;46.704;38.274;2023-02-15T08:33:47;1.94;94.98
75865;HTU21D;64510;46.704;38.274;2023-02-15T08:36:16;1.90;94.81
75865;HTU21D;64510;46.704;38.274;2023-02-15T08:38:42;1.88;95.08
75865;HTU21D;64510;46.704;38.274;2023-02-15T08:43:35;2.08;95.28
75865;HTU21D;64510;46.704;38.274;2023-02-15T08:46:01;2.12;94.98
75865;HTU21D;64510;46.704;38.274;2023-02-15T08:48:27;2.14;94.95
75865;HTU21D;64510;46.704;38.274;2023-02-15T08:50:53;2.17;94.96
75865;HTU21D;64510;46.704;38.274;2023-02-15T08:53:19;2.17;94.82
75865;HTU21D;64510;46.704;38.274;2023-02-15T08:55:54;2.29;94.97
75865;HTU21D;64510;46.704;38.274;2023-02-15T08:58:20;2.28;94.04
75865;HTU21D;64510;46.704;38.274;2023-02-15T09:00:46;2.21;93.98
75865;HTU21D;64510;46.704;38.274;2023-02-15T09:03:12;2.16;94.10
75865;HTU21D;64510;46.704;38.274;2023-02-15T09:05:38;2.17;94.28
75865;HTU21D;64510;46.704;38.274;2023-02-15T09:08:04;2.11;94.00
75865;HTU21D;64510;46.704;38.274;2023-02-15T09:10:30;1.97;94.03
75865;HTU21D;64510;46.704;38.274;2023-02-15T09:12:56;1.97;94.22
75865;HTU21D;64510;46.704;38.274;2023-02-15T09:15:22;2.03;94.27
75865;HTU21D;64510;46.704;38.274;2023-02-15T09:17:47;2.00;93.90
75865;HTU21D;64510;46.704;38.274;2023-02-15T09:20:13;2.07;93.95
75865;HTU21D;64510;46.704;38.274;2023-02-15T09:22:39;2.13;93.86
75865;HTU21D;64510;46.704;38.274;2023-02-15T09:25:05;2.20;93.78
75865;HTU21D;64510;46.704;38.274;2023-02-15T09:27:31;2.25;93.43
75865;HTU21D;64510;46.704;38.274;2023-02-15T09:29:57;2.22;93.43
75865;HTU21D;64510;46.704;38.274;2023-02-15T09:32:23;2.28;93.47
75865;HTU21D;64510;46.704;38.274;2023-02-15T09:34:49;2.37;93.40
75865;HTU21D;64510;46.704;38.274;2023-02-15T09:37:15;2.40;92.88
75865;HTU21D;64510;46.704;38.274;2023-02-15T09:39:43;2.35;92.63
75865;HTU21D;64510;46.704;38.274;2023-02-15T10:03:54;2.46;92.24
75865;HTU21D;64510;46.704;38.274;2023-02-15T10:17:41;2.57;91.66
75865;HTU21D;64510;46.704;38.274;2023-02-15T10:26:20;2.50;91.99
75865;HTU21D;64510;46.704;38.274;2023-02-15T10:28:53;2.44;92.09
75865;HTU21D;64510;46.704;38.274;2023-02-15T10:31:47;2.31;91.63
75865;HTU21D;64510;46.704;38.274;2023-02-15T10:34:19;2.25;91.74
75865;HTU21D;64510;46.704;38.274;2023-02-15T10:47:47;2.46;90.82
75865;HTU21D;64510;46.704;38.274;2023-02-15T11:03:29;2.39;91.02
75865;HTU21D;64510;46.704;38.274;2023-02-15T11:08:24;2.41;90.60
75865;HTU21D;64510;46.704;38.274;2023-02-15T11:10:58;2.44;90.39
75865;HTU21D;64510;46.704;38.274;2023-02-15T11:13:31;2.42;89.85
75865;HTU21D;64510;46.704;38.274;2023-02-15T11:16:06;2.47;90.22
75865;HTU21D;64510;46.704;38.274;2023-02-15T11:18:46;2.40;89.77
75865;HTU21D;64510;46.704;38.274;2023-02-15T11:21:22;2.43;90.10
75865;HTU21D;64510;46.704;38.274;2023-02-15T11:23:48;2.53;89.99
75865;HTU21D;64510;46.704;38.274;2023-02-15T11:26:34;2.69;89.71
75865;HTU21D;64510;46.704;38.274;2023-02-15T11:29:37;2.80;89.26
75865;HTU21D;64510;46.704;38.274;2023-02-15T11:32:30;2.88;88.56
75865;HTU21D;64510;46.704;38.274;2023-02-15T11:37:51;2.86;88.15
75865;HTU21D;64510;46.704;38.274;2023-02-15T11:40:36;2.93;87.61
75865;HTU21D;64510;46.704;38.274;2023-02-15T11:43:12;2.95;87.14
75865;HTU21D;64510;46.704;38.274;2023-02-15T11:45:41;2.73;86.64
75865;HTU21D;64510;46.704;38.274;2023-02-15T11:48:11;2.81;87.77
75865;HTU21D;64510;46.704;38.274;2023-02-15T11:50:37;2.84;87.19
75865;HTU21D;64510;46.704;38.274;2023-02-15T11:53:21;2.99;86.74
75865;HTU21D;64510;46.704;38.274;2023-02-15T11:55:51;3.13;86.37
75865;HTU21D;64510;46.704;38.274;2023-02-15T12:06:46;2.85;85.71
75865;HTU21D;64510;46.704;38.274;2023-02-15T12:09:40;2.42;86.92
75865;HTU21D;64510;46.704;38.274;2023-02-15T12:12:29;2.16;88.43
75865;HTU21D;64510;46.704;38.274;2023-02-15T12:14:57;1.99;88.92
75865;HTU21D;64510;46.704;38.274;2023-02-15T12:17:27;1.86;89.31
75865;HTU21D;64510;46.704;38.274;2023-02-15T12:20:00;1.69;89.66
75865;HTU21D;64510;46.704;38.274;2023-02-15T12:22:36;1.58;90.11
75865;HTU21D;64510;46.704;38.274;2023-02-15T12:27:50;1.58;90.28
75865;HTU21D;64510;46.704;38.274;2023-02-15T12:30:23;1.49;90.49
75865;HTU21D;64510;46.704;38.274;2023-02-15T12:32:56;1.39;90.69
75865;HTU21D;64510;46.704;38.274;2023-02-15T12:35:30;1.28;90.96
75865;HTU21D;64510;46.704;38.274;2023-02-15T12:38:02;1.24;91.34
75865;HTU21D;64510;46.704;38.274;2023-02-15T12:40:30;1.27;91.40
75865;HTU21D;64510;46.704;38.274;2023-02-15T12:42:56;1.27;91.58
75865;HTU21D;64510;46.704;38.274;2023-02-15T12:45:32;1.25;91.43
75865;HTU21D;64510;46.704;38.274;2023-02-15T12:48:17;1.24;91.56
75865;HTU21D;64510;46.704;38.274;2023-02-15T12:50:48;1.21;91.62
75865;HTU21D;64510;46.704;38.274;2023-02-15T12:53:20;1.24;91.72
75865;HTU21D;64510;46.704;38.274;2023-02-15T12:56:01;1.33;91.61
75865;HTU21D;64510;46.704;38.274;2023-02-15T12:58:39;1.38;91.56
75865;HTU21D;64510;46.704;38.274;2023-02-15T13:03:35;1.39;91.40
75865;HTU21D;64510;46.704;38.274;2023-02-15T13:06:04;1.40;91.33
75865;HTU21D;64510;46.704;38.274;2023-02-15T13:08:46;1.34;91.47
75865;HTU21D;64510;46.704;38.274;2023-02-15T13:11:21;1.38;91.62
75865;HTU21D;64510;46.704;38.274;2023-02-15T13:13:56;1.41;91.47
75865;HTU21D;64510;46.704;38.274;2023-02-15T13:16:43;1.47;91.42
75865;HTU21D;64510;46.704;38.274;2023-02-15T13:19:16;1.41;91.34
75865;HTU21D;64510;46.704;38.274;2023-02-15T13:21:46;1.38;91.39
75865;HTU21D;64510;46.704;38.274;2023-02-15T13:24:39;1.40;91.53
75865;HTU21D;64510;46.704;38.274;2023-02-15T13:27:08;1.47;91.41
75865;HTU21D;64510;46.704;38.274;2023-02-15T13:29:36;1.46;91.02
75865;HTU21D;64510;46.704;38.274;2023-02-15T13:32:15;1.45;90.89
75865;HTU21D;64510;46.704;38.274;2023-02-15T13:34:46;1.41;90.73
75865;HTU21D;64510;46.704;38.274;2023-02-15T13:37:35;1.35;90.73
75865;HTU21D;64510;46.704;38.274;2023-02-15T13:40:24;1.26;90.66
75865;HTU21D;64510;46.704;38.274;2023-02-15T13:43:18;1.14;90.72
75865;HTU21D;64510;46.704;38.274;2023-02-15T13:46:01;1.08;90.61
75865;HTU21D;64510;46.704;38.274;2023-02-15T13:51:55;0.97;90.25
75865;HTU21D;64510;46.704;38.274;2023-02-15T14:00:40;0.89;89.12
75865;HTU21D;64510;46.704;38.274;2023-02-15T14:08:54;0.86;88.79
75865;HTU21D;64510;46.704;38.274;2023-02-15T14:17:14;0.81;87.56
75865;HTU21D;64510;46.704;38.274;2023-02-15T14:19:52;0.78;87.40
75865;HTU21D;64510;46.704;38.274;2023-02-15T14:22:41;0.77;87.08
75865;HTU21D;64510;46.704;38.274;2023-02-15T14:25:43;0.77;86.71
75865;HTU21D;64510;46.704;38.274;2023-02-15T14:28:25;0.72;86.21
75865;HTU21D;64510;46.704;38.274;2023-02-15T14:30:54;0.71;86.04
75865;HTU21D;64510;46.704;38.274;2023-02-15T14:33:34;0.71;85.96
75865;HTU21D;64510;46.704;38.274;2023-02-15T14:36:02;0.69;85.74
75865;HTU21D;64510;46.704;38.274;2023-02-15T14:39:16;0.65;85.76
75865;HTU21D;64510;46.704;38.274;2023-02-15T14:41:59;0.57;85.88
75865;HTU21D;64510;46.704;38.274;2023-02-15T14:47:25;0.52;86.15
75865;HTU21D;64510;46.704;38.274;2023-02-15T14:49:52;0.52;86.19
75865;HTU21D;64510;46.704;38.274;2023-02-15T14:52:18;0.54;86.12
75865;HTU21D;64510;46.704;38.274;2023-02-15T14:59:57;0.59;86.27
75865;HTU21D;64510;46.704;38.274;2023-02-15T15:02:39;0.57;86.35
75865;HTU21D;64510;46.704;38.274;2023-02-15T15:07:43;0.58;86.27
75865;HTU21D;64510;46.704;38.274;2023-02-15T15:15:44;0.61;86.60
75865;HTU21D;64510;46.704;38.274;2023-02-15T15:18:48;0.58;86.67
75865;HTU21D;64510;46.704;38.274;2023-02-15T15:41:48;0.63;87.47
75865;HTU21D;64510;46.704;38.274;2023-02-15T15:49:59;0.50;87.81
75865;HTU21D;64510;46.704;38.274;2023-02-15T15:52:26;0.47;87.95
75865;HTU21D;64510;46.704;38.274;2023-02-15T15:55:03;0.44;88.04
75865;HTU21D;64510;46.704;38.274;2023-02-15T15:57:41;0.40;88.10
75865;HTU21D;64510;46.704;38.274;2023-02-15T16:03:22;0.36;88.35
75865;HTU21D;64510;46.704;38.274;2023-02-15T16:05:48;0.34;88.35
75865;HTU21D;64510;46.704;38.274;2023-02-15T16:08:37;0.36;88.36
75865;HTU21D;64510;46.704;38.274;2023-02-15T16:11:21;0.38;88.47
75865;HTU21D;64510;46.704;38.274;2023-02-15T16:13:49;0.37;88.52
75865;HTU21D;64510;46.704;38.274;2023-02-15T16:16:27;0.39;88.51
75865;HTU21D;64510;46.704;38.274;2023-02-15T16:18:56;0.40;88.47
75865;HTU21D;64510;46.704;38.274;2023-02-15T16:21:28;0.40;88.44
75865;HTU21D;64510;46.704;38.274;2023-02-15T16:29:45;0.39;88.55
75865;HTU21D;64510;46.704;38.274;2023-02-15T16:32:21;0.42;88.53
75865;HTU21D;64510;46.704;38.274;2023-02-15T16:34:59;0.43;88.55
75865;HTU21D;64510;46.704;38.274;2023-02-15T16:37:35;0.44;88.61
75865;HTU21D;64510;46.704;38.274;2023-02-15T16:40:02;0.44;88.57
75865;HTU21D;64510;46.704;38.274;2023-02-15T16:42:28;0.45;88.59
75865;HTU21D;64510;46.704;38.274;2023-02-15T16:45:15;0.47;88.57
75865;HTU21D;64510;46.704;38.274;2023-02-15T16:47:46;0.47;88.64
75865;HTU21D;64510;46.704;38.274;2023-02-15T16:50:24;0.48;88.69
75865;HTU21D;64510;46.704;38.274;2023-02-15T16:52:52;0.43;88.70
75865;HTU21D;64510;46.704;38.274;2023-02-15T16:55:27;0.43;88.83
75865;HTU21D;64510;46.704;38.274;2023-02-15T16:57:59;0.43;88.96
75865;HTU21D;64510;46.704;38.274;2023-02-15T17:00:30;0.42;89.01
75865;HTU21D;64510;46.704;38.274;2023-02-15T17:03:05;0.42;89.17
75865;HTU21D;64510;46.704;38.274;2023-02-15T17:05:46;0.43;89.22
75865;HTU21D;64510;46.704;38.274;2023-02-15T17:08:24;0.45;89.28
75865;HTU21D;64510;46.704;38.274;2023-02-15T17:11:15;0.46;89.38
75865;HTU21D;64510;46.704;38.274;2023-02-15T17:16:50;0.42;89.49
75865;HTU21D;64510;46.704;38.274;2023-02-15T17:19:22;0.39;89.66
75865;HTU21D;64510;46.704;38.274;2023-02-15T17:21:59;0.43;89.75
75865;HTU21D;64510;46.704;38.274;2023-02-15T17:24:41;0.43;89.79
75865;HTU21D;64510;46.704;38.274;2023-02-15T17:27:16;0.39;89.85
75865;HTU21D;64510;46.704;38.274;2023-02-15T17:29:50;0.38;89.96
75865;HTU21D;64510;46.704;38.274;2023-02-15T17:32:21;0.37;90.08
75865;HTU21D;64510;46.704;38.274;2023-02-15T17:40:00;0.40;90.18
75865;HTU21D;64510;46.704;38.274;2023-02-15T17:42:31;0.40;90.23
75865;HTU21D;64510;46.704;38.274;2023-02-15T17:44:57;0.37;90.29
75865;HTU21D;64510;46.704;38.274;2023-02-15T17:47:23;0.37;90.38
75865;HTU21D;64510;46.704;38.274;2023-02-15T17:49:52;0.35;90.44
75865;HTU21D;64510;46.704;38.274;2023-02-15T17:52:22;0.32;90.53
75865;HTU21D;64510;46.704;38.274;2023-02-15T17:54:55;0.30;90.65
75865;HTU21D;64510;46.704;38.274;2023-02-15T17:57:39;0.28;90.79
75865;HTU21D;64510;46.704;38.274;2023-02-15T18:00:07;0.23;90.81
75865;HTU21D;64510;46.704;38.274;2023-02-15T18:02:52;0.22;90.92
75865;HTU21D;64510;46.704;38.274;2023-02-15T18:05:37;0.21;91.07
75865;HTU21D;64510;46.704;38.274;2023-02-15T18:08:26;0.21;91.15
75865;HTU21D;64510;46.704;38.274;2023-02-15T18:11:13;0.19;91.30
75865;HTU21D;64510;46.704;38.274;2023-02-15T18:13:58;0.21;91.33
75865;HTU21D;64510;46.704;38.274;2023-02-15T18:16:29;0.21;91.34
75865;HTU21D;64510;46.704;38.274;2023-02-15T18:18:56;0.21;91.39
75865;HTU21D;64510;46.704;38.274;2023-02-15T18:21:23;0.19;91.45
75865;HTU21D;64510;46.704;38.274;2023-02-15T18:23:49;0.19;91.56
75865;HTU21D;64510;46.704;38.274;2023-02-15T18:26:21;0.22;91.60
75865;HTU21D;64510;46.704;38.274;2023-02-15T18:28:47;0.22;91.54
75865;HTU21D;64510;46.704;38.274;2023-02-15T18:31:13;0.22;91.62
75865;HTU21D;64510;46.704;38.274;2023-02-15T18:33:41;0.23;91.67
75865;HTU21D;64510;46.704;38.274;2023-02-15T18:36:14;0.22;91.79
75865;HTU21D;64510;46.704;38.274;2023-02-15T18:38:43;0.21;91.89
75865;HTU21D;64510;46.704;38.274;2023-02-15T18:41:15;0.21;91.97
75865;HTU21D;64510;46.704;38.274;2023-02-15T18:43:41;0.21;92.00
75865;HTU21D;64510;46.704;38.274;2023-02-15T18:46:07;0.20;91.98
75865;HTU21D;64510;46.704;38.274;2023-02-15T18:48:33;0.19;91.95
75865;HTU21D;64510;46.704;38.274;2023-02-15T18:51:00;0.19;92.03
75865;HTU21D;64510;46.704;38.274;2023-02-15T18:53:26;0.20;92.06
75865;HTU21D;64510;46.704;38.274;2023-02-15T18:55:52;0.20;92.09
75865;HTU21D;64510;46.704;38.274;2023-02-15T18:58:20;0.20;92.21
75865;HTU21D;64510;46.704;38.274;2023-02-15T19:00:49;0.20;92.24